Time;durP1;ratioP1;P1;durP2;ratioP2;P2;SDS_P1;SDS_P2;PMS_P1;PMS_P2;Temp;Humidity;BMP_temperature;BMP_pressure;BME280_temperature;BME280_humidity;BME280_pressure;Samples;Min_cycle;Max_cycle;Signal;HPM_P1;HPM_P2
2022/04/16 00:01:39;;;;;;;;;;;;;;;9.04;55.78;95183.28;5134939;27;1003;-48
2022/04/16 00:04:08;;;;;;;;;;;;;;;8.90;56.34;95188.16;5134912;27;1070;-48
2022/04/16 00:06:34;;;;;;;;;;;;;;;8.71;56.67;95177.63;5134561;27;1055;-48
2022/04/16 00:09:00;;;;;;;;;;;;;;;8.75;56.41;95185.16;5134670;27;1093;-48
2022/04/16 00:11:26;;;;;;;;;;;;;;;8.76;56.65;95184.19;5134633;27;1027;-48
2022/04/16 00:13:52;;;;;;;;;;;;;;;8.86;56.63;95191.25;5134276;27;1054;-48
2022/04/16 00:16:18;;;;;;;;;;;;;;;8.96;56.51;95189.38;5134742;27;1051;-49
2022/04/16 00:18:44;;;;;;;;;;;;;;;9.00;56.96;95196.09;5134373;28;1987;-48
2022/04/16 00:21:11;;;;;;;;;;;;;;;8.99;56.81;95191.72;5134566;28;1134;-48
2022/04/16 00:23:43;;;;;;;;;;;;;;;8.88;56.75;95190.13;5134439;28;1027;-48
2022/04/16 00:26:12;;;;;;;;;;;;;;;8.83;57.19;95192.41;5134427;28;979;-48
2022/04/16 00:28:39;;;;;;;;;;;;;;;8.76;57.35;95194.84;5134189;28;1060;-48
2022/04/16 00:31:05;;;;;;;;;;;;;;;8.60;57.39;95199.97;5134562;28;1054;-48
2022/04/16 00:33:33;;;;;;;;;;;;;;;8.35;58.13;95191.63;5134784;28;1050;-48
2022/04/16 00:36:00;;;;;;;;;;;;;;;8.28;57.96;95190.53;5134285;28;1019;-48
2022/04/16 00:38:26;;;;;;;;;;;;;;;8.07;58.94;95187.25;5134187;28;1986;-48
2022/04/16 00:40:52;;;;;;;;;;;;;;;8.17;58.34;95182.72;5134200;28;1959;-48
2022/04/16 00:43:21;;;;;;;;;;;;;;;8.39;58.31;95189.50;5134438;27;1017;-48
2022/04/16 00:45:47;;;;;;;;;;;;;;;8.25;57.85;95187.31;5134468;28;1028;-48
2022/04/16 00:48:13;;;;;;;;;;;;;;;8.25;57.81;95182.81;5134470;28;1039;-48
2022/04/16 00:50:40;;;;;;;;;;;;;;;8.34;57.53;95184.59;5134155;28;945;-49
2022/04/16 00:53:06;;;;;;;;;;;;;;;8.65;56.79;95184.38;5134211;28;1047;-49
2022/04/16 00:55:36;;;;;;;;;;;;;;;8.77;56.53;95182.34;5134127;28;1058;-49
2022/04/16 00:58:02;;;;;;;;;;;;;;;8.81;56.29;95178.38;5134193;28;1909;-48
2022/04/16 01:00:29;;;;;;;;;;;;;;;8.75;57.28;95187.81;5134096;27;1039;-48
2022/04/16 01:02:56;;;;;;;;;;;;;;;8.63;57.65;95188.97;5134338;28;981;-48
2022/04/16 01:05:22;;;;;;;;;;;;;;;8.51;57.74;95193.69;5134169;27;1078;-48
2022/04/16 01:07:53;;;;;;;;;;;;;;;8.37;57.71;95186.16;5134342;28;1022;-48
2022/04/16 01:10:25;;;;;;;;;;;;;;;8.03;58.66;95186.69;5133924;28;1028;-48
2022/04/16 01:12:52;;;;;;;;;;;;;;;7.82;59.13;95187.72;5134133;28;1046;-48
2022/04/16 01:15:20;;;;;;;;;;;;;;;7.87;59.55;95186.44;5133916;28;1025;-48
2022/04/16 01:17:47;;;;;;;;;;;;;;;7.86;59.28;95188.28;5134147;28;1909;-48
2022/04/16 01:20:14;;;;;;;;;;;;;;;8.00;59.23;95185.13;5133678;28;1249;-48
2022/04/16 01:22:40;;;;;;;;;;;;;;;8.09;59.11;95180.78;5134134;28;983;-48
2022/04/16 01:25:07;;;;;;;;;;;;;;;8.04;58.73;95182.19;5135521;27;1030;-48
2022/04/16 01:27:35;;;;;;;;;;;;;;;7.70;59.40;95178.22;5137771;27;1051;-48
2022/04/16 01:30:03;;;;;;;;;;;;;;;7.56;60.16;95178.66;5136526;27;1027;-48
2022/04/16 01:32:29;;;;;;;;;;;;;;;7.78;59.84;95172.19;5137496;27;1019;-48
2022/04/16 01:34:55;;;;;;;;;;;;;;;7.80;59.09;95176.38;5137718;27;1056;-48
2022/04/16 01:37:23;;;;;;;;;;;;;;;7.70;59.36;95175.56;5137587;27;1985;-48
2022/04/16 01:39:49;;;;;;;;;;;;;;;7.60;59.29;95172.06;5137294;27;1031;-48
2022/04/16 01:42:15;;;;;;;;;;;;;;;7.71;59.10;95171.91;5137460;27;1110;-48
2022/04/16 01:44:43;;;;;;;;;;;;;;;7.73;58.98;95183.25;5137530;27;1026;-48
2022/04/16 01:47:10;;;;;;;;;;;;;;;7.82;58.69;95177.06;5137231;27;1966;-48
2022/04/16 01:49:36;;;;;;;;;;;;;;;7.91;58.85;95167.38;5137237;27;1038;-48
2022/04/16 01:52:03;;;;;;;;;;;;;;;7.90;59.20;95168.34;5137401;27;952;-48
2022/04/16 01:54:29;;;;;;;;;;;;;;;7.86;58.98;95166.16;5137341;27;1028;-49
2022/04/16 01:56:56;;;;;;;;;;;;;;;7.79;58.96;95172.03;5137146;27;1905;-48
2022/04/16 01:59:22;;;;;;;;;;;;;;;7.51;59.49;95167.59;5136886;27;1015;-48
2022/04/16 02:01:48;;;;;;;;;;;;;;;7.19;60.04;95166.06;5137112;27;944;-48
2022/04/16 02:04:14;;;;;;;;;;;;;;;7.18;60.24;95165.22;5137178;27;1130;-48
2022/04/16 02:06:40;;;;;;;;;;;;;;;7.34;60.10;95167.34;5137070;27;1023;-48
2022/04/16 02:09:06;;;;;;;;;;;;;;;7.27;60.18;95176.84;5137060;27;1011;-48
2022/04/16 02:11:32;;;;;;;;;;;;;;;7.30;59.66;95183.69;5136931;27;1063;-48
2022/04/16 02:13:58;;;;;;;;;;;;;;;7.09;59.96;95184.66;5136540;27;1080;-48
2022/04/16 02:16:24;;;;;;;;;;;;;;;7.23;59.98;95180.78;5136805;27;980;-48
2022/04/16 02:18:51;;;;;;;;;;;;;;;7.40;59.17;95172.09;5136483;27;1984;-48
2022/04/16 02:21:19;;;;;;;;;;;;;;;7.51;59.45;95173.78;5136480;27;1072;-48
2022/04/16 02:23:45;;;;;;;;;;;;;;;7.41;59.68;95160.44;5136800;27;1027;-48
2022/04/16 02:26:11;;;;;;;;;;;;;;;7.39;59.67;95167.75;5136749;27;964;-48
2022/04/16 02:28:37;;;;;;;;;;;;;;;7.09;60.19;95168.72;5136327;27;1091;-48
2022/04/16 02:31:03;;;;;;;;;;;;;;;6.88;60.90;95160.88;5136419;27;1051;-48
2022/04/16 02:33:30;;;;;;;;;;;;;;;6.82;61.31;95156.13;5136349;27;976;-48
2022/04/16 02:35:58;;;;;;;;;;;;;;;6.81;61.24;95165.06;5136219;27;976;-48
2022/04/16 02:38:24;;;;;;;;;;;;;;;6.79;61.34;95157.25;5136386;27;1910;-48
2022/04/16 02:40:50;;;;;;;;;;;;;;;6.92;60.98;95156.94;5136355;27;1063;-48
2022/04/16 02:43:17;;;;;;;;;;;;;;;6.96;60.70;95152.19;5135998;27;1094;-48
2022/04/16 02:48:28;;;;;;;;;;;;;;;6.91;61.04;95157.13;5135980;27;980;-48
2022/04/16 02:50:54;;;;;;;;;;;;;;;6.91;60.81;95157.94;5136224;27;1108;-48
2022/04/16 02:53:20;;;;;;;;;;;;;;;6.79;60.88;95165.22;5136248;27;920;-48
2022/04/16 02:55:49;;;;;;;;;;;;;;;6.58;61.08;95170.63;5136152;27;964;-48
2022/04/16 02:58:15;;;;;;;;;;;;;;;6.37;61.76;95168.03;5135630;27;1913;-48
2022/04/16 03:00:42;;;;;;;;;;;;;;;6.30;61.73;95177.53;5135749;27;1070;-48
2022/04/16 03:03:08;;;;;;;;;;;;;;;6.16;62.41;95177.88;5135937;27;1035;-48
2022/04/16 03:05:35;;;;;;;;;;;;;;;6.23;62.39;95171.91;5135970;27;1043;-48
2022/04/16 03:08:01;;;;;;;;;;;;;;;6.43;62.06;95170.16;5135578;27;1016;-48
2022/04/16 03:10:27;;;;;;;;;;;;;;;6.64;61.43;95174.56;5135734;27;1941;-48
2022/04/16 03:12:55;;;;;;;;;;;;;;;6.80;61.58;95177.50;5135400;27;1078;-48
2022/04/16 03:18:07;;;;;;;;;;;;;;;6.48;61.23;95177.72;5135615;27;1992;-48
2022/04/16 03:20:33;;;;;;;;;;;;;;;6.42;61.99;95179.09;5135443;27;1253;-48
2022/04/16 03:22:59;;;;;;;;;;;;;;;6.56;61.43;95180.53;5135530;27;980;-48
2022/04/16 03:25:27;;;;;;;;;;;;;;;6.70;61.36;95184.63;5135278;27;1032;-48
2022/04/16 03:27:53;;;;;;;;;;;;;;;6.65;61.16;95187.69;5135454;27;984;-48
2022/04/16 03:30:19;;;;;;;;;;;;;;;6.67;61.14;95181.41;5135439;27;973;-48
2022/04/16 03:32:47;;;;;;;;;;;;;;;6.66;61.06;95185.88;5135469;27;1044;-48
2022/04/16 03:35:13;;;;;;;;;;;;;;;6.51;61.96;95185.44;5135405;27;998;-48
2022/04/16 03:37:39;;;;;;;;;;;;;;;6.51;62.08;95184.59;5135307;27;1915;-48
2022/04/16 03:40:06;;;;;;;;;;;;;;;6.63;61.56;95186.16;5135032;27;1125;-48
2022/04/16 03:42:32;;;;;;;;;;;;;;;6.62;61.51;95184.44;5135222;27;968;-48
2022/04/16 03:45:00;;;;;;;;;;;;;;;6.47;61.81;95184.03;5135148;27;959;-48
2022/04/16 03:47:27;;;;;;;;;;;;;;;6.26;62.38;95186.75;5134811;27;969;-48
2022/04/16 03:49:54;;;;;;;;;;;;;;;6.20;62.67;95195.22;5135062;27;1047;-48
2022/04/16 03:52:20;;;;;;;;;;;;;;;6.42;62.54;95197.69;5133823;27;1030;-48
2022/04/16 04:00:17;;;;;;;;;;;;;;;6.72;61.55;95203.09;5134982;27;955;-48
2022/04/16 04:02:43;;;;;;;;;;;;;;;6.62;61.73;95208.38;5134955;27;1023;-48
2022/04/16 04:05:09;;;;;;;;;;;;;;;6.75;61.61;95214.28;5134591;27;1039;-48
2022/04/16 04:07:35;;;;;;;;;;;;;;;6.81;61.40;95208.44;5134585;27;1052;-48
2022/04/16 04:10:02;;;;;;;;;;;;;;;6.86;61.56;95207.19;5134557;27;1160;-48
2022/04/16 04:12:28;;;;;;;;;;;;;;;6.96;61.23;95205.38;5134424;27;1083;-48
2022/04/16 04:14:54;;;;;;;;;;;;;;;7.09;60.87;95203.28;5134520;27;1990;-48
2022/04/16 04:17:20;;;;;;;;;;;;;;;7.12;61.01;95199.53;5134722;27;1941;-48
2022/04/16 04:19:47;;;;;;;;;;;;;;;7.25;60.88;95205.41;5134489;28;1039;-48
2022/04/16 04:22:17;;;;;;;;;;;;;;;7.39;60.60;95201.50;5134319;28;1380;-48
2022/04/16 04:24:43;;;;;;;;;;;;;;;7.63;59.70;95203.72;5134694;28;1086;-48
2022/04/16 04:27:10;;;;;;;;;;;;;;;7.58;60.15;95200.63;5134315;28;1086;-48
2022/04/16 04:29:36;;;;;;;;;;;;;;;7.61;59.94;95201.19;5134717;27;1219;-48
2022/04/16 04:32:03;;;;;;;;;;;;;;;7.76;59.99;95216.75;5134538;28;1062;-48
2022/04/16 04:34:29;;;;;;;;;;;;;;;7.94;59.84;95217.66;5134418;28;1043;-48
2022/04/16 04:36:55;;;;;;;;;;;;;;;8.07;59.14;95222.69;5134185;28;1983;-48
2022/04/16 04:39:21;;;;;;;;;;;;;;;8.25;58.64;95214.78;5134283;28;956;-48
2022/04/16 04:41:47;;;;;;;;;;;;;;;8.43;59.33;95216.72;5134497;28;969;-48
2022/04/16 04:44:13;;;;;;;;;;;;;;;8.36;59.64;95227.91;5134428;28;1002;-48
2022/04/16 04:46:40;;;;;;;;;;;;;;;8.42;58.68;95217.72;5134526;28;995;-48
2022/04/16 04:49:09;;;;;;;;;;;;;;;8.50;58.68;95224.00;5134272;28;984;-48
2022/04/16 04:51:35;;;;;;;;;;;;;;;8.56;60.40;95228.72;5134172;28;1071;-48
2022/04/16 04:54:02;;;;;;;;;;;;;;;8.95;57.86;95222.34;5134095;28;1028;-48
2022/04/16 04:56:29;;;;;;;;;;;;;;;9.16;57.75;95230.09;5134031;28;1849;-48
2022/04/16 04:58:55;;;;;;;;;;;;;;;9.56;57.13;95223.47;5134321;27;1989;-48
2022/04/16 05:01:21;;;;;;;;;;;;;;;10.09;55.80;95221.72;5137841;27;1027;-48
2022/04/16 05:03:47;;;;;;;;;;;;;;;10.34;55.81;95220.09;5138067;27;1032;-48
2022/04/16 05:06:13;;;;;;;;;;;;;;;10.37;55.97;95224.28;5138302;27;1039;-48
2022/04/16 05:08:39;;;;;;;;;;;;;;;10.39;55.37;95216.94;5138180;27;960;-49
2022/04/16 05:11:05;;;;;;;;;;;;;;;10.58;55.21;95222.06;5137808;27;1167;-49
2022/04/16 05:13:31;;;;;;;;;;;;;;;10.62;54.41;95227.94;5138182;27;1012;-48
2022/04/16 05:15:57;;;;;;;;;;;;;;;10.72;54.25;95221.47;5138137;27;960;-48
2022/04/16 05:18:24;;;;;;;;;;;;;;;10.98;54.38;95215.19;5137678;27;1898;-49
2022/04/16 05:20:50;;;;;;;;;;;;;;;11.20;53.48;95218.31;5137650;27;1229;-49
2022/04/16 05:23:16;;;;;;;;;;;;;;;11.24;53.90;95220.47;5137621;27;1011;-49
2022/04/16 05:25:42;;;;;;;;;;;;;;;11.39;53.14;95227.88;5137478;27;1023;-49
2022/04/16 05:28:09;;;;;;;;;;;;;;;11.38;53.62;95227.00;5138006;27;1042;-49
2022/04/16 05:30:41;;;;;;;;;;;;;;;11.37;54.62;95227.22;5137710;27;1026;-48
2022/04/16 05:34:18;;;;;;;;;;;;;;;11.34;54.99;95231.03;5137631;27;968;-48
2022/04/16 05:36:03;;;;;;;;;;;;;;;11.39;54.67;95228.72;5137426;27;1631;-48
2022/04/16 05:38:29;;;;;;;;;;;;;;;11.53;54.76;95228.06;5137343;27;1996;-49
2022/04/16 05:40:55;;;;;;;;;;;;;;;11.45;55.10;95225.38;5137414;27;999;-49
2022/04/16 05:43:21;;;;;;;;;;;;;;;11.69;54.01;95227.25;5137474;27;1051;-49
2022/04/16 05:45:47;;;;;;;;;;;;;;;11.83;55.73;95233.78;5137340;27;940;-49
2022/04/16 05:48:13;;;;;;;;;;;;;;;12.09;54.71;95235.50;5137186;27;1868;-49
2022/04/16 05:50:39;;;;;;;;;;;;;;;12.26;52.66;95228.28;5136253;27;976;-48
2022/04/16 05:53:10;;;;;;;;;;;;;;;12.16;52.97;95235.66;5137324;27;960;-49
2022/04/16 05:55:37;;;;;;;;;;;;;;;12.35;53.54;95218.38;5137236;27;1027;-49
2022/04/16 05:58:03;;;;;;;;;;;;;;;12.46;52.54;95216.19;5137246;27;2024;-49
2022/04/16 06:00:29;;;;;;;;;;;;;;;12.71;52.88;95210.75;5137080;27;1035;-49
2022/04/16 06:02:56;;;;;;;;;;;;;;;12.85;51.53;95211.88;5137177;27;968;-49
2022/04/16 06:05:22;;;;;;;;;;;;;;;12.81;50.45;95200.66;5137127;27;994;-48
2022/04/16 06:07:48;;;;;;;;;;;;;;;13.24;48.80;95200.25;5136755;27;1004;-48
2022/04/16 06:10:15;;;;;;;;;;;;;;;13.70;49.32;95199.50;5136624;27;973;-49
2022/04/16 06:12:41;;;;;;;;;;;;;;;13.96;47.88;95197.31;5136804;27;963;-50
2022/04/16 06:15:07;;;;;;;;;;;;;;;14.23;47.66;95206.63;5136763;27;1023;-47
2022/04/16 06:17:34;;;;;;;;;;;;;;;14.58;46.85;95204.28;5136586;27;1905;-48
2022/04/16 06:20:00;;;;;;;;;;;;;;;14.61;45.91;95201.25;5136681;27;1628;-48
2022/04/16 06:22:26;;;;;;;;;;;;;;;14.76;45.19;95205.78;5136765;27;987;-49
2022/04/16 06:24:51;;;;;;;;;;;;;;;14.81;43.84;95197.97;5136369;27;1040;-48
2022/04/16 06:27:17;;;;;;;;;;;;;;;14.97;44.50;95197.81;5136609;27;1027;-48
2022/04/16 06:29:43;;;;;;;;;;;;;;;15.40;43.33;95183.59;5136388;27;1044;-48
2022/04/16 06:32:09;;;;;;;;;;;;;;;15.61;43.49;95182.78;5136334;27;1066;-48
2022/04/16 06:34:35;;;;;;;;;;;;;;;15.80;41.86;95176.81;5136257;27;1091;-47
2022/04/16 06:37:02;;;;;;;;;;;;;;;15.88;42.64;95173.13;5136201;27;1988;-47
2022/04/16 06:39:28;;;;;;;;;;;;;;;15.93;41.50;95169.84;5136304;27;1087;-48
2022/04/16 06:41:54;;;;;;;;;;;;;;;15.95;41.55;95173.19;5136077;27;1039;-48
2022/04/16 06:44:20;;;;;;;;;;;;;;;16.39;41.49;95180.19;5136179;27;1126;-49
2022/04/16 06:46:46;;;;;;;;;;;;;;;16.93;40.67;95176.81;5136325;27;947;-48
2022/04/16 06:49:12;;;;;;;;;;;;;;;17.37;39.67;95166.59;5136052;27;1015;-48
2022/04/16 06:51:38;;;;;;;;;;;;;;;17.60;39.44;95177.06;5136145;27;916;-48
2022/04/16 06:54:04;;;;;;;;;;;;;;;18.27;37.50;95179.91;5135982;27;1034;-48
2022/04/16 06:56:30;;;;;;;;;;;;;;;19.24;36.90;95178.28;5135844;27;1973;-48
2022/04/16 06:58:56;;;;;;;;;;;;;;;19.39;35.67;95179.88;5136085;27;2002;-48
2022/04/16 07:01:22;;;;;;;;;;;;;;;20.59;33.95;95185.38;5135720;27;968;-48
2022/04/16 07:03:48;;;;;;;;;;;;;;;20.90;33.12;95180.09;5135969;27;1028;-48
2022/04/16 07:06:14;;;;;;;;;;;;;;;21.30;33.31;95169.59;5135895;27;1047;-48
2022/04/16 07:08:40;;;;;;;;;;;;;;;20.73;34.18;95169.00;5135880;27;1066;-48
2022/04/16 07:11:06;;;;;;;;;;;;;;;20.09;34.63;95177.25;5135521;27;1111;-48
2022/04/16 07:13:32;;;;;;;;;;;;;;;19.75;35.36;95168.47;5135565;27;1031;-49
2022/04/16 07:15:58;;;;;;;;;;;;;;;19.21;35.88;95173.28;5135538;27;1091;-48
2022/04/16 07:18:25;;;;;;;;;;;;;;;19.08;37.17;95162.50;5135357;27;1979;-48
2022/04/16 07:20:51;;;;;;;;;;;;;;;19.14;36.95;95163.50;5135213;27;1233;-48
2022/04/16 07:23:17;;;;;;;;;;;;;;;18.96;36.75;95164.22;5134610;27;912;-48
2022/04/16 07:25:43;;;;;;;;;;;;;;;18.34;37.13;95156.34;5135337;27;1019;-48
2022/04/16 07:28:11;;;;;;;;;;;;;;;18.04;38.12;95156.81;5135808;27;948;-48
2022/04/16 07:30:37;;;;;;;;;;;;;;;17.76;37.43;95141.53;5135235;27;1274;-48
2022/04/16 07:33:03;;;;;;;;;;;;;;;17.83;39.47;95148.81;5135466;27;965;-48
2022/04/16 07:35:29;;;;;;;;;;;;;;;18.14;39.71;95154.50;5135091;27;1032;-48
2022/04/16 07:37:57;;;;;;;;;;;;;;;18.12;39.17;95143.06;5135196;27;1905;-48
2022/04/16 07:40:24;;;;;;;;;;;;;;;17.99;38.25;95136.81;5134989;27;1847;-48
2022/04/16 07:42:50;;;;;;;;;;;;;;;17.86;39.31;95141.16;5135099;27;1067;-48
2022/04/16 07:45:16;;;;;;;;;;;;;;;17.93;40.45;95136.59;5134976;27;1031;-48
2022/04/16 07:47:42;;;;;;;;;;;;;;;18.09;40.45;95137.22;5135232;27;961;-48
2022/04/16 07:50:09;;;;;;;;;;;;;;;18.17;40.42;95128.06;5134855;27;1210;-49
2022/04/16 07:52:35;;;;;;;;;;;;;;;17.85;40.04;95125.13;5135025;27;1023;-48
2022/04/16 07:55:01;;;;;;;;;;;;;;;18.03;39.96;95128.06;5134890;27;1012;-48
2022/04/16 07:57:27;;;;;;;;;;;;;;;18.41;40.19;95124.72;5134702;27;1985;-48
2022/04/16 07:59:54;;;;;;;;;;;;;;;18.55;40.13;95125.50;5134743;27;1049;-48
2022/04/16 08:02:20;;;;;;;;;;;;;;;18.67;39.04;95115.72;5134965;27;980;-48
2022/04/16 08:04:46;;;;;;;;;;;;;;;18.71;39.42;95116.13;5134656;27;1016;-48
2022/04/16 08:07:12;;;;;;;;;;;;;;;18.82;39.34;95117.34;5134787;27;971;-48
2022/04/16 08:09:39;;;;;;;;;;;;;;;19.18;40.74;95119.53;5134535;27;1887;-49
2022/04/16 08:12:05;;;;;;;;;;;;;;;19.18;40.03;95105.97;5134858;27;1087;-48
2022/04/16 08:14:31;;;;;;;;;;;;;;;19.35;38.97;95109.03;5134488;27;1055;-48
2022/04/16 08:16:58;;;;;;;;;;;;;;;19.56;39.61;95109.72;5134711;27;1018;-49
2022/04/16 08:19:24;;;;;;;;;;;;;;;19.91;38.93;95110.13;5134426;27;1967;-48
2022/04/16 08:21:50;;;;;;;;;;;;;;;20.29;38.67;95106.47;5134364;27;1110;-48
2022/04/16 08:26:54;;;;;;;;;;;;;;;20.65;38.39;95103.03;5134417;28;1118;-48
2022/04/16 08:29:21;;;;;;;;;;;;;;;20.76;38.32;95093.31;5133112;28;1047;-48
2022/04/16 08:31:48;;;;;;;;;;;;;;;20.79;38.08;95103.72;5134654;27;1034;-48
2022/04/16 08:34:14;;;;;;;;;;;;;;;20.89;38.36;95095.03;5136242;27;1035;-48
2022/04/16 08:36:40;;;;;;;;;;;;;;;20.81;37.51;95092.59;5138898;27;996;-48
2022/04/16 08:39:06;;;;;;;;;;;;;;;20.86;37.46;95090.88;5138372;27;1901;-48
2022/04/16 08:41:32;;;;;;;;;;;;;;;20.94;37.58;95088.91;5138811;27;941;-48
2022/04/16 08:43:59;;;;;;;;;;;;;;;21.18;37.50;95084.44;5138693;27;1007;-48
2022/04/16 08:46:30;;;;;;;;;;;;;;;21.25;37.07;95083.28;5138627;27;1039;-48
2022/04/16 08:48:57;;;;;;;;;;;;;;;21.51;36.02;95072.31;5138509;27;971;-49
2022/04/16 08:51:25;;;;;;;;;;;;;;;21.67;34.24;95074.38;5138457;27;1006;-49
2022/04/16 08:53:51;;;;;;;;;;;;;;;21.70;35.15;95071.16;5138447;27;1019;-49
2022/04/16 08:56:17;;;;;;;;;;;;;;;21.87;35.18;95060.44;5138320;27;1006;-49
2022/04/16 08:58:43;;;;;;;;;;;;;;;22.02;31.90;95052.69;5138022;27;1906;-49
2022/04/16 09:01:09;;;;;;;;;;;;;;;21.95;30.97;95057.41;5138062;27;1050;-48
2022/04/16 09:03:36;;;;;;;;;;;;;;;22.03;31.32;95045.34;5138085;27;1020;-49
2022/04/16 09:06:02;;;;;;;;;;;;;;;22.28;30.73;95053.31;5138400;27;991;-50
2022/04/16 09:08:29;;;;;;;;;;;;;;;22.50;31.20;95053.56;5137993;27;988;-50
2022/04/16 09:11:05;;;;;;;;;;;;;;;22.66;31.40;95051.16;5138260;27;1030;-50
2022/04/16 09:13:31;;;;;;;;;;;;;;;22.83;30.14;95046.63;5138287;27;1052;-49
2022/04/16 09:16:07;;;;;;;;;;;;;;;22.84;29.42;95042.00;5138222;27;1129;-49
2022/04/16 09:18:52;;;;;;;;;;;;;;;23.08;30.05;95038.16;5137909;27;1902;-49
2022/04/16 09:21:19;;;;;;;;;;;;;;;23.09;29.75;95039.84;5137550;27;1822;-49
2022/04/16 09:23:47;;;;;;;;;;;;;;;22.98;30.40;95040.66;5137567;27;999;-48
2022/04/16 09:26:33;;;;;;;;;;;;;;;22.95;30.07;95041.94;5137902;27;1208;-50
2022/04/16 09:29:10;;;;;;;;;;;;;;;22.85;29.94;95035.47;5137485;27;1896;-48
2022/04/16 09:31:40;;;;;;;;;;;;;;;22.85;30.15;95032.75;5137868;27;1027;-49
2022/04/16 09:34:07;;;;;;;;;;;;;;;22.98;30.11;95027.03;5137708;27;972;-49
2022/04/16 09:36:38;;;;;;;;;;;;;;;22.97;29.74;95030.81;5137737;27;1016;-49
2022/04/16 09:39:05;;;;;;;;;;;;;;;22.86;29.85;95029.78;5137565;27;1909;-48
2022/04/16 09:41:34;;;;;;;;;;;;;;;22.91;29.99;95026.34;5137471;27;952;-49
2022/04/16 09:44:01;;;;;;;;;;;;;;;23.01;30.71;95021.06;5137441;27;972;-49
2022/04/16 09:46:28;;;;;;;;;;;;;;;22.95;30.60;95020.16;5136467;27;1088;-49
2022/04/16 09:49:02;;;;;;;;;;;;;;;22.98;29.66;95021.56;5137470;27;1050;-49
2022/04/16 09:51:32;;;;;;;;;;;;;;;22.94;29.67;95025.88;5137370;27;956;-49
2022/04/16 09:53:58;;;;;;;;;;;;;;;23.04;30.00;95011.63;5137364;27;971;-49
2022/04/16 09:56:27;;;;;;;;;;;;;;;22.94;30.14;95009.50;5137060;27;1102;-49
2022/04/16 09:58:55;;;;;;;;;;;;;;;23.03;30.04;95013.53;5137225;27;1917;-49
2022/04/16 10:01:22;;;;;;;;;;;;;;;23.03;30.67;95009.94;5137212;27;1011;-49
2022/04/16 10:03:49;;;;;;;;;;;;;;;22.96;29.51;95008.19;5137165;27;975;-49
2022/04/16 10:06:15;;;;;;;;;;;;;;;22.79;30.59;95008.13;5137210;27;948;-48
2022/04/16 10:08:41;;;;;;;;;;;;;;;22.85;29.99;95009.03;5136945;27;1046;-49
2022/04/16 10:11:08;;;;;;;;;;;;;;;22.90;29.54;94995.53;5136936;27;1040;-49
2022/04/16 10:13:39;;;;;;;;;;;;;;;23.02;30.21;94995.47;5136728;27;925;-49
2022/04/16 10:16:19;;;;;;;;;;;;;;;23.03;30.17;94985.41;5136658;27;1036;-49
2022/04/16 10:18:45;;;;;;;;;;;;;;;23.02;30.20;94984.56;5136602;27;1978;-49
2022/04/16 10:21:15;;;;;;;;;;;;;;;23.04;30.89;94987.09;5136585;27;1083;-48
2022/04/16 10:23:41;;;;;;;;;;;;;;;23.19;30.80;94980.03;5136771;27;1047;-48
2022/04/16 10:26:09;;;;;;;;;;;;;;;23.24;29.73;94978.47;5136794;27;1019;-48
2022/04/16 10:28:38;;;;;;;;;;;;;;;23.21;28.79;94970.78;5136364;27;1036;-48
2022/04/16 10:31:05;;;;;;;;;;;;;;;23.18;30.03;94966.63;5136622;27;1051;-48
2022/04/16 10:33:31;;;;;;;;;;;;;;;23.30;29.71;94972.03;5136381;27;1196;-49
2022/04/16 10:36:01;;;;;;;;;;;;;;;23.49;30.14;94973.47;5136289;27;1028;-49
2022/04/16 10:38:31;;;;;;;;;;;;;;;23.39;27.28;94965.94;5136117;27;1905;-48
2022/04/16 10:40:58;;;;;;;;;;;;;;;23.43;29.90;94963.56;5136204;27;1236;-49
2022/04/16 10:43:33;;;;;;;;;;;;;;;23.65;29.50;94960.91;5136377;27;983;-49
2022/04/16 10:46:09;;;;;;;;;;;;;;;23.67;28.93;94957.94;5136376;27;957;-49
2022/04/16 10:48:36;;;;;;;;;;;;;;;23.61;28.89;94954.28;5136196;27;1202;-48
2022/04/16 10:51:03;;;;;;;;;;;;;;;23.65;28.94;94954.63;5136028;27;1079;-48
2022/04/16 10:53:33;;;;;;;;;;;;;;;23.62;29.35;94942.31;5135864;27;1031;-48
2022/04/16 10:56:12;;;;;;;;;;;;;;;23.44;28.95;94948.81;5136162;27;1044;-48
2022/04/16 10:58:41;;;;;;;;;;;;;;;23.48;30.21;94949.16;5135000;27;1909;-48
2022/04/16 11:01:09;;;;;;;;;;;;;;;23.51;29.66;94946.75;5135733;27;1055;-48
2022/04/16 11:03:48;;;;;;;;;;;;;;;23.48;29.11;94944.53;5136010;27;956;-48
2022/04/16 11:06:14;;;;;;;;;;;;;;;23.38;29.28;94936.16;5135837;27;1032;-50
2022/04/16 11:08:41;;;;;;;;;;;;;;;23.39;30.71;94944.13;5135649;27;1111;-48
2022/04/16 11:11:08;;;;;;;;;;;;;;;23.40;29.42;94942.22;5135770;27;1019;-48
2022/04/16 11:13:38;;;;;;;;;;;;;;;23.34;29.10;94929.56;5135823;27;1030;-48
2022/04/16 11:16:05;;;;;;;;;;;;;;;23.11;29.88;94944.16;5135485;27;1027;-48
2022/04/16 11:18:44;;;;;;;;;;;;;;;23.05;29.00;94931.47;5135449;27;1901;-50
2022/04/16 11:21:12;;;;;;;;;;;;;;;23.12;29.88;94929.44;5135244;27;1099;-48
2022/04/16 11:23:45;;;;;;;;;;;;;;;23.17;29.64;94926.81;5135352;27;1028;-48
2022/04/16 11:34:26;;;;;;;;;;;;;;;23.21;28.95;94908.06;5135501;27;968;-48
2022/04/16 11:36:53;;;;;;;;;;;;;;;23.17;29.43;94905.81;5135187;27;1067;-48
2022/04/16 11:39:20;;;;;;;;;;;;;;;23.12;28.65;94908.44;5135359;27;1902;-48
2022/04/16 11:41:53;;;;;;;;;;;;;;;23.11;27.85;94904.06;5134918;27;953;-48
2022/04/16 11:44:32;;;;;;;;;;;;;;;23.23;29.46;94909.47;5135268;27;1052;-48
2022/04/16 11:46:58;;;;;;;;;;;;;;;23.14;29.67;94898.09;5135089;27;1055;-48
2022/04/16 11:49:24;;;;;;;;;;;;;;;23.17;29.10;94888.63;5135059;27;1065;-48
2022/04/16 11:51:50;;;;;;;;;;;;;;;23.24;27.98;94896.63;5134787;27;1141;-48
2022/04/16 11:54:25;;;;;;;;;;;;;;;23.10;26.94;94887.97;5134766;27;1063;-48
2022/04/16 11:56:52;;;;;;;;;;;;;;;23.13;27.34;94877.38;5135017;27;960;-48
2022/04/16 11:59:28;;;;;;;;;;;;;;;23.26;27.72;94873.53;5134698;27;1915;-50
2022/04/16 12:02:07;;;;;;;;;;;;;;;23.36;28.02;94873.69;5135044;27;1058;-48
2022/04/16 12:04:42;;;;;;;;;;;;;;;23.47;28.76;94861.03;5134662;27;1055;-49
2022/04/16 12:07:09;;;;;;;;;;;;;;;23.50;29.72;94870.59;5134776;27;1022;-48
2022/04/16 12:09:35;;;;;;;;;;;;;;;23.37;29.12;94861.72;5134573;27;1019;-48
2022/04/16 12:12:04;;;;;;;;;;;;;;;23.31;29.10;94857.22;5134748;27;1015;-48
2022/04/16 12:14:31;;;;;;;;;;;;;;;23.37;28.98;94860.84;5134499;27;1056;-48
2022/04/16 12:16:57;;;;;;;;;;;;;;;23.34;28.77;94848.56;5134711;27;1031;-49
2022/04/16 12:19:27;;;;;;;;;;;;;;;23.28;29.29;94846.00;5134289;27;1993;-48
2022/04/16 12:21:55;;;;;;;;;;;;;;;23.31;29.97;94853.66;3244111;27;2152;-53
2022/04/16 12:24:29;;;;;;;;;;;;;;;23.23;28.82;94851.38;5134403;28;1131;-48
2022/04/16 12:26:56;;;;;;;;;;;;;;;22.95;28.20;94848.41;5134771;28;991;-48
2022/04/16 12:29:26;;;;;;;;;;;;;;;22.90;28.85;94848.34;5134381;28;1039;-48
2022/04/16 12:31:59;;;;;;;;;;;;;;;22.92;28.25;94837.19;5134612;28;968;-48
2022/04/16 12:34:25;;;;;;;;;;;;;;;22.89;29.21;94841.22;5134622;28;1039;-48
2022/04/16 12:36:52;;;;;;;;;;;;;;;22.93;29.33;94838.81;5134423;28;1078;-48
2022/04/16 12:39:18;;;;;;;;;;;;;;;22.95;29.36;94833.97;5134558;28;1987;-48
2022/04/16 12:41:44;;;;;;;;;;;;;;;22.96;29.05;94830.16;5134613;28;1019;-48
2022/04/16 12:44:10;;;;;;;;;;;;;;;22.99;29.35;94824.22;5134229;28;1123;-49
2022/04/16 12:46:36;;;;;;;;;;;;;;;23.08;29.78;94830.13;5134205;27;1024;-48
2022/04/16 12:49:02;;;;;;;;;;;;;;;23.03;29.04;94828.16;5134505;28;1050;-48
2022/04/16 12:51:28;;;;;;;;;;;;;;;22.84;28.51;94821.22;5134112;28;1098;-49
2022/04/16 12:53:54;;;;;;;;;;;;;;;22.72;29.43;94811.22;5134489;28;1046;-48
2022/04/16 12:56:20;;;;;;;;;;;;;;;22.71;27.99;94809.56;5134470;28;964;-48
2022/04/16 12:58:46;;;;;;;;;;;;;;;22.77;29.09;94814.03;5134053;28;1906;-48
2022/04/16 13:01:12;;;;;;;;;;;;;;;22.73;30.09;94815.59;5134090;28;1095;-48
2022/04/16 13:03:38;;;;;;;;;;;;;;;22.67;29.93;94813.88;5134086;28;1070;-48
2022/04/16 13:06:04;;;;;;;;;;;;;;;22.69;29.44;94816.31;5134200;28;1055;-48
2022/04/16 13:08:30;;;;;;;;;;;;;;;22.73;29.69;94806.59;5134026;28;1095;-48
2022/04/16 13:10:56;;;;;;;;;;;;;;;22.68;29.73;94804.59;5134353;28;1023;-48
2022/04/16 13:13:25;;;;;;;;;;;;;;;22.65;29.94;94807.00;5134308;28;964;-48
2022/04/16 13:15:51;;;;;;;;;;;;;;;22.55;29.81;94803.00;5134194;28;972;-49
2022/04/16 13:18:17;;;;;;;;;;;;;;;22.58;29.50;94799.81;5134205;28;1905;-49
2022/04/16 13:20:43;;;;;;;;;;;;;;;22.61;29.91;94798.47;5133520;27;1074;-49
2022/04/16 13:23:09;;;;;;;;;;;;;;;22.74;30.48;94805.53;5137582;27;1272;-48
2022/04/16 13:25:35;;;;;;;;;;;;;;;22.67;29.34;94794.78;5137829;27;928;-48